createdAt,value
2023-05-05T00:00:12.416Z,94971.00
2023-05-05T00:01:12.471Z,94975.00
2023-05-05T00:02:12.510Z,94969.00
2023-05-05T00:03:12.678Z,94971.00
2023-05-05T00:04:12.602Z,94969.00
2023-05-05T00:05:12.623Z,94969.00
2023-05-05T00:06:12.639Z,94973.00
2023-05-05T00:07:12.645Z,94969.00
2023-05-05T00:08:12.671Z,94971.00
2023-05-05T00:09:12.692Z,94969.00
2023-05-05T00:10:12.763Z,94969.00
2023-05-05T00:11:12.780Z,94965.00
2023-05-05T00:12:12.734Z,94971.00
2023-05-05T00:13:12.900Z,94967.00
2023-05-05T00:14:12.776Z,94967.00
2023-05-05T00:15:12.779Z,94967.00
2023-05-05T00:16:12.814Z,94967.00
2023-05-05T00:17:12.904Z,94965.00
2023-05-05T00:18:12.932Z,94967.00
2023-05-05T00:19:12.927Z,94967.00
2023-05-05T00:20:12.949Z,94971.00
2023-05-05T00:21:12.968Z,94969.00
2023-05-05T00:22:13.011Z,94969.00
2023-05-05T00:23:13.035Z,94967.00
2023-05-05T00:24:13.065Z,94967.00
2023-05-05T00:25:13.116Z,94971.00
2023-05-05T00:26:13.116Z,94969.00
2023-05-05T00:27:13.133Z,94969.00
2023-05-05T00:28:13.141Z,94967.00
2023-05-05T00:29:13.168Z,94969.00
2023-05-05T00:30:13.157Z,94967.00
2023-05-05T00:31:13.193Z,94969.00
2023-05-05T00:32:13.179Z,94969.00
2023-05-05T00:33:13.169Z,94973.00
2023-05-05T00:34:13.246Z,94973.00
2023-05-05T00:35:13.197Z,94971.00
2023-05-05T00:36:13.207Z,94973.00
2023-05-05T00:37:13.264Z,94975.00
2023-05-05T00:38:13.237Z,94971.00
2023-05-05T00:39:13.267Z,94969.00
2023-05-05T00:40:13.266Z,94969.00
2023-05-05T00:41:13.297Z,94973.00
2023-05-05T00:42:13.301Z,94975.00
2023-05-05T00:43:13.321Z,94973.00
2023-05-05T00:44:13.343Z,94971.00
2023-05-05T00:45:13.358Z,94973.00
2023-05-05T00:46:13.398Z,94975.00
2023-05-05T00:47:13.433Z,94975.00
2023-05-05T00:48:13.421Z,94973.00
2023-05-05T00:49:13.511Z,94977.00
2023-05-05T00:50:13.496Z,94977.00
2023-05-05T00:51:13.547Z,94979.00
2023-05-05T00:52:13.651Z,94979.00
2023-05-05T00:53:13.620Z,94977.00
2023-05-05T00:54:13.615Z,94977.00
2023-05-05T00:55:13.667Z,94975.00
2023-05-05T00:56:13.633Z,94975.00
2023-05-05T00:57:13.719Z,94975.00
2023-05-05T00:58:13.720Z,94973.00
2023-05-05T00:59:13.752Z,94973.00
2023-05-05T01:00:13.740Z,94975.00
2023-05-05T01:01:13.768Z,94971.00
2023-05-05T01:02:13.802Z,94973.00
2023-05-05T01:03:13.880Z,94975.00
2023-05-05T01:04:13.841Z,94975.00
2023-05-05T01:05:13.863Z,94973.00
2023-05-05T01:06:13.858Z,94971.00
2023-05-05T01:07:13.897Z,94969.00
2023-05-05T01:08:13.862Z,94967.00
2023-05-05T01:09:13.886Z,94967.00
2023-05-05T01:10:20.212Z,94967.00
2023-05-05T01:11:14.879Z,94969.00
2023-05-05T01:12:13.881Z,94971.00
2023-05-05T01:13:13.970Z,94967.00
2023-05-05T01:14:13.858Z,94967.00
2023-05-05T01:15:13.847Z,94967.00
2023-05-05T01:16:13.878Z,94969.00
2023-05-05T01:17:13.888Z,94967.00
2023-05-05T01:18:13.836Z,94967.00
2023-05-05T01:19:13.836Z,94967.00
2023-05-05T01:20:13.814Z,94967.00
2023-05-05T01:21:13.835Z,94967.00
2023-05-05T01:22:13.798Z,94969.00
2023-05-05T01:23:13.820Z,94969.00
2023-05-05T01:24:13.804Z,94969.00
2023-05-05T01:25:13.775Z,94969.00
2023-05-05T01:26:13.792Z,94971.00
2023-05-05T01:27:13.802Z,94969.00
2023-05-05T01:28:13.771Z,94971.00
2023-05-05T01:29:13.852Z,94971.00
2023-05-05T01:30:13.911Z,94977.00
2023-05-05T01:31:13.972Z,94973.00
2023-05-05T01:32:13.989Z,94975.00
2023-05-05T01:33:14.046Z,94977.00
2023-05-05T01:34:14.087Z,94975.00
2023-05-05T01:35:14.139Z,94973.00
2023-05-05T01:36:14.179Z,94973.00
2023-05-05T01:37:14.648Z,94973.00
2023-05-05T01:38:14.250Z,94975.00
2023-05-05T01:39:14.320Z,94977.00
2023-05-05T01:40:14.360Z,94973.00
2023-05-05T01:41:14.413Z,94973.00
2023-05-05T01:42:14.440Z,94975.00
2023-05-05T01:43:14.492Z,94973.00
2023-05-05T01:44:14.555Z,94975.00
2023-05-05T01:45:14.591Z,94975.00
2023-05-05T01:46:14.777Z,94975.00
2023-05-05T01:47:14.681Z,94975.00
2023-05-05T01:48:14.731Z,94977.00
2023-05-05T01:49:14.765Z,94977.00
2023-05-05T01:50:14.805Z,94977.00
2023-05-05T01:51:14.864Z,94975.00
2023-05-05T01:52:14.923Z,94975.00
2023-05-05T01:53:14.943Z,94975.00
2023-05-05T01:54:14.966Z,94975.00
2023-05-05T01:55:14.997Z,94977.00
2023-05-05T01:56:15.061Z,94977.00
2023-05-05T01:57:15.066Z,94977.00
2023-05-05T01:58:15.111Z,94977.00
2023-05-05T01:59:15.125Z,94973.00
2023-05-05T02:00:15.182Z,94977.00
2023-05-05T02:01:15.214Z,94979.00
2023-05-05T02:02:15.299Z,94977.00
2023-05-05T02:03:15.370Z,94979.00
2023-05-05T02:04:15.353Z,94979.00
2023-05-05T02:05:15.402Z,94977.00
2023-05-05T02:06:15.460Z,94975.00
2023-05-05T02:07:15.504Z,94977.00
2023-05-05T02:08:15.574Z,94981.00
2023-05-05T02:09:15.584Z,94981.00
2023-05-05T02:10:15.614Z,94981.00
2023-05-05T02:11:15.682Z,94985.00
2023-05-05T02:12:15.714Z,94983.00
2023-05-05T02:13:15.868Z,94985.00
2023-05-05T02:14:15.791Z,94987.00
2023-05-05T02:15:15.877Z,94985.00
2023-05-05T02:16:15.934Z,94985.00
2023-05-05T02:17:15.903Z,94989.00
2023-05-05T02:18:15.909Z,94991.00
2023-05-05T02:19:15.981Z,94994.00
2023-05-05T02:20:15.985Z,94996.00
2023-05-05T02:21:16.040Z,94998.00
2023-05-05T02:22:16.021Z,94998.00
2023-05-05T02:23:16.067Z,95000.00
2023-05-05T02:24:16.063Z,95000.00
2023-05-05T02:25:16.010Z,95000.00
2023-05-05T02:26:16.066Z,94998.00
2023-05-05T02:27:16.032Z,95000.00
2023-05-05T02:28:16.031Z,95000.00
2023-05-05T02:29:16.027Z,95002.00
2023-05-05T02:30:16.036Z,95000.00
2023-05-05T02:31:16.071Z,95002.00
2023-05-05T02:32:16.003Z,95002.00
2023-05-05T02:33:16.017Z,94998.00
2023-05-05T02:34:16.013Z,95000.00
2023-05-05T02:35:16.068Z,94998.00
2023-05-05T02:36:16.003Z,94998.00
2023-05-05T02:37:16.001Z,94998.00
2023-05-05T02:38:15.985Z,94998.00
2023-05-05T02:39:15.998Z,94996.00
2023-05-05T02:40:15.980Z,94996.00
2023-05-05T02:41:15.966Z,94996.00
2023-05-05T02:42:15.974Z,94996.00
2023-05-05T02:43:15.982Z,94998.00
2023-05-05T02:44:15.970Z,94998.00
2023-05-05T02:45:15.959Z,94998.00
2023-05-05T02:46:16.215Z,94998.00
2023-05-05T02:47:15.968Z,94998.00
2023-05-05T02:48:15.971Z,94998.00
2023-05-05T02:49:15.927Z,94996.00
2023-05-05T02:50:15.965Z,94996.00
2023-05-05T02:51:15.925Z,94994.00
2023-05-05T02:52:15.932Z,94996.00
2023-05-05T02:53:15.934Z,94996.00
2023-05-05T02:54:15.978Z,94998.00
2023-05-05T02:55:15.925Z,94994.00
2023-05-05T02:56:15.912Z,94996.00
2023-05-05T02:57:15.925Z,94992.00
2023-05-05T02:58:15.943Z,94996.00
2023-05-05T02:59:16.469Z,94992.00
2023-05-05T03:00:15.991Z,94998.00
2023-05-05T03:01:16.084Z,94998.00
2023-05-05T03:02:16.171Z,95000.00
2023-05-05T03:03:16.181Z,95000.00
2023-05-05T03:04:16.106Z,94998.00
2023-05-05T03:05:16.131Z,95000.00
2023-05-05T03:06:16.166Z,95000.00
2023-05-05T03:07:16.156Z,95004.00
2023-05-05T03:08:16.214Z,95004.00
2023-05-05T03:09:16.192Z,95000.00
2023-05-05T03:10:16.239Z,95006.00
2023-05-05T03:11:16.180Z,95002.00
2023-05-05T03:12:16.219Z,95004.00
2023-05-05T03:13:16.221Z,95000.00
2023-05-05T03:14:16.185Z,95000.00
2023-05-05T03:15:16.210Z,95000.00
2023-05-05T03:16:16.212Z,95002.00
2023-05-05T03:17:16.191Z,95004.00
2023-05-05T03:18:16.212Z,95006.00
2023-05-05T03:19:16.173Z,95004.00
2023-05-05T03:20:16.214Z,95006.00
2023-05-05T03:21:16.163Z,95006.00
2023-05-05T03:22:16.176Z,95006.00
2023-05-05T03:23:16.198Z,95006.00
2023-05-05T03:24:16.161Z,95008.00
2023-05-05T03:25:16.185Z,95008.00
2023-05-05T03:26:16.188Z,95010.00
2023-05-05T03:27:16.175Z,95010.00
2023-05-05T03:28:16.190Z,95010.00
2023-05-05T03:29:16.209Z,95008.00
2023-05-05T03:30:16.168Z,95008.00
2023-05-05T03:31:16.196Z,95006.00
2023-05-05T03:32:16.145Z,95008.00
2023-05-05T03:33:16.203Z,95006.00
2023-05-05T03:34:16.165Z,95008.00
2023-05-05T03:35:16.166Z,95004.00
2023-05-05T03:36:16.186Z,95004.00
2023-05-05T03:37:16.164Z,95002.00
2023-05-05T03:38:16.172Z,95000.00
2023-05-05T03:39:16.184Z,95002.00
2023-05-05T03:40:16.161Z,94998.00
2023-05-05T03:41:16.192Z,95002.00
2023-05-05T03:42:16.192Z,95004.00
2023-05-05T03:43:16.159Z,95000.00
2023-05-05T03:44:16.151Z,95000.00
2023-05-05T03:45:16.149Z,95002.00
2023-05-05T03:46:16.315Z,95002.00
2023-05-05T03:47:16.180Z,95000.00
2023-05-05T03:48:16.136Z,95004.00
2023-05-05T03:49:16.147Z,95000.00
2023-05-05T03:50:16.138Z,95000.00
2023-05-05T03:51:16.158Z,95000.00
2023-05-05T03:52:16.169Z,94998.00
2023-05-05T03:53:16.160Z,94998.00
2023-05-05T03:54:16.170Z,94998.00
2023-05-05T03:55:16.167Z,94996.00
2023-05-05T03:56:16.168Z,94996.00
2023-05-05T03:57:16.180Z,94998.00
2023-05-05T03:58:16.242Z,94996.00
2023-05-05T03:59:16.251Z,94998.00
2023-05-05T04:00:16.328Z,94998.00
2023-05-05T04:01:16.338Z,94998.00
2023-05-05T04:02:18.381Z,94996.00
2023-05-05T04:03:16.509Z,94998.00
2023-05-05T04:04:16.412Z,94996.00
2023-05-05T04:05:16.360Z,94996.00
2023-05-05T04:06:16.349Z,94996.00
2023-05-05T04:07:16.306Z,94998.00
2023-05-05T04:08:16.384Z,94998.00
2023-05-05T04:09:16.339Z,94998.00
2023-05-05T04:10:16.305Z,94998.00
2023-05-05T04:11:16.290Z,94998.00
2023-05-05T04:12:16.297Z,94998.00
2023-05-05T04:13:16.415Z,94994.00
2023-05-05T04:14:16.322Z,94996.00
2023-05-05T04:15:16.307Z,94994.00
2023-05-05T04:16:16.355Z,94996.00
2023-05-05T04:17:16.334Z,94996.00
2023-05-05T04:18:16.337Z,94994.00
2023-05-05T04:19:16.343Z,94994.00
2023-05-05T04:20:16.408Z,94996.00
2023-05-05T04:21:16.375Z,94994.00
2023-05-05T04:22:16.383Z,94994.00
2023-05-05T04:23:16.491Z,94994.00
2023-05-05T04:24:16.431Z,94994.00
2023-05-05T04:25:16.447Z,94998.00
2023-05-05T04:26:16.445Z,94998.00
2023-05-05T04:27:16.442Z,94998.00
2023-05-05T04:28:16.518Z,94996.00
2023-05-05T04:29:16.511Z,94998.00
2023-05-05T04:30:16.514Z,95002.00
2023-05-05T04:31:16.594Z,95004.00
2023-05-05T04:32:16.570Z,95004.00
2023-05-05T04:33:16.581Z,95008.00
2023-05-05T04:34:16.617Z,95008.00
2023-05-05T04:35:16.577Z,95012.00
2023-05-05T04:36:16.605Z,95008.00
2023-05-05T04:37:16.727Z,95010.00
2023-05-05T04:38:16.782Z,95010.00
2023-05-05T04:39:16.709Z,95010.00
2023-05-05T04:40:16.727Z,95008.00
2023-05-05T04:41:16.742Z,95010.00
2023-05-05T04:42:16.714Z,95010.00
2023-05-05T04:43:16.726Z,95010.00
2023-05-05T04:44:16.751Z,95014.00
2023-05-05T04:45:16.766Z,95014.00
2023-05-05T04:46:16.867Z,95012.00
2023-05-05T04:47:16.845Z,95014.00
2023-05-05T04:48:16.909Z,95014.00
2023-05-05T04:49:16.924Z,95014.00
2023-05-05T04:50:16.961Z,95016.00
2023-05-05T04:51:17.025Z,95016.00
2023-05-05T04:52:17.043Z,95014.00
2023-05-05T04:53:17.089Z,95018.00
2023-05-05T04:54:17.133Z,95018.00
2023-05-05T04:55:17.157Z,95020.00
2023-05-05T04:56:17.256Z,95022.00
2023-05-05T04:57:17.225Z,95024.00
2023-05-05T04:58:17.305Z,95028.00
2023-05-05T04:59:17.331Z,95028.00
2023-05-05T05:00:17.365Z,95026.00
2023-05-05T05:01:17.324Z,95030.00
2023-05-05T05:02:17.401Z,95030.00
2023-05-05T05:03:17.545Z,95028.00
2023-05-05T05:04:17.378Z,95026.00
2023-05-05T05:05:17.379Z,95026.00
2023-05-05T05:06:17.354Z,95026.00
2023-05-05T05:07:17.354Z,95028.00
2023-05-05T05:08:17.379Z,95030.00
2023-05-05T05:09:17.370Z,95028.00
2023-05-05T05:10:17.345Z,95032.00
2023-05-05T05:11:17.344Z,95036.00
2023-05-05T05:12:17.330Z,95032.00
2023-05-05T05:13:17.395Z,95034.00
2023-05-05T05:14:17.338Z,95032.00
2023-05-05T05:15:17.332Z,95032.00
2023-05-05T05:16:17.354Z,95032.00
2023-05-05T05:17:17.310Z,95030.00
2023-05-05T05:18:17.462Z,95032.00
2023-05-05T05:19:17.318Z,95032.00
2023-05-05T05:20:17.313Z,95036.00
2023-05-05T05:21:17.369Z,95032.00
2023-05-05T05:22:17.387Z,95032.00
2023-05-05T05:23:17.390Z,95030.00
2023-05-05T05:24:17.393Z,95032.00
2023-05-05T05:25:17.401Z,95032.00
2023-05-05T05:26:17.439Z,95034.00
2023-05-05T05:27:17.449Z,95034.00
2023-05-05T05:28:17.424Z,95036.00
2023-05-05T05:29:17.503Z,95036.00
2023-05-05T05:30:17.436Z,95038.00
2023-05-05T05:31:17.738Z,95038.00
2023-05-05T05:32:17.466Z,95036.00
2023-05-05T05:33:17.581Z,95038.00
2023-05-05T05:34:17.665Z,95036.00
2023-05-05T05:35:17.444Z,95034.00
2023-05-05T05:36:17.459Z,95036.00
2023-05-05T05:37:17.448Z,95038.00
2023-05-05T05:38:17.459Z,95036.00
2023-05-05T05:39:17.581Z,95039.00
2023-05-05T05:40:17.466Z,95036.00
2023-05-05T05:41:17.458Z,95038.00
2023-05-05T05:42:17.534Z,95036.00
2023-05-05T05:43:17.651Z,95036.00
2023-05-05T05:44:17.557Z,95036.00
2023-05-05T05:45:17.633Z,95036.00
2023-05-05T05:46:18.315Z,95034.00
2023-05-05T05:47:17.676Z,95030.00
2023-05-05T05:48:17.676Z,95032.00
2023-05-05T05:49:17.757Z,95032.00
2023-05-05T05:50:17.804Z,95026.00
2023-05-05T05:51:17.933Z,95028.00
2023-05-05T05:52:18.045Z,95030.00
2023-05-05T05:53:17.987Z,95032.00
2023-05-05T05:54:18.049Z,95032.00
2023-05-05T05:55:18.110Z,95030.00
2023-05-05T05:56:18.118Z,95028.00
2023-05-05T05:57:18.161Z,95026.00
2023-05-05T05:58:18.224Z,95030.00
2023-05-05T05:59:18.239Z,95030.00
2023-05-05T06:00:18.321Z,95034.00
2023-05-05T06:01:18.417Z,95036.00
2023-05-05T06:02:18.413Z,95036.00
2023-05-05T06:03:18.671Z,95034.00
2023-05-05T06:04:18.506Z,95034.00
2023-05-05T06:05:18.513Z,95032.00
2023-05-05T06:06:18.728Z,95034.00
2023-05-05T06:07:18.875Z,95032.00
2023-05-05T06:08:19.223Z,95032.00
2023-05-05T06:09:18.633Z,95032.00
2023-05-05T06:10:28.098Z,95030.00
2023-05-05T06:11:19.635Z,95034.00
2023-05-05T06:12:18.585Z,95030.00
2023-05-05T06:13:18.613Z,95032.00
2023-05-05T06:14:20.119Z,95034.00
2023-05-05T06:15:18.592Z,95034.00
2023-05-05T06:16:18.591Z,95034.00
2023-05-05T06:17:18.601Z,95032.00
2023-05-05T06:18:18.635Z,95032.00
2023-05-05T06:19:18.611Z,95030.00
2023-05-05T06:20:18.558Z,95030.00
2023-05-05T06:21:18.552Z,95028.00
2023-05-05T06:22:18.508Z,95026.00
2023-05-05T06:23:18.604Z,95026.00
2023-05-05T06:24:18.507Z,95026.00
2023-05-05T06:25:18.555Z,95026.00
2023-05-05T06:26:18.531Z,95028.00
2023-05-05T06:27:18.515Z,95026.00
2023-05-05T06:28:18.848Z,95024.00
2023-05-05T06:29:18.598Z,95024.00
2023-05-05T06:30:18.473Z,95020.00
2023-05-05T06:31:18.476Z,95018.00
2023-05-05T06:32:18.459Z,95016.00
2023-05-05T06:33:18.497Z,95010.00
2023-05-05T06:34:18.456Z,95010.00
2023-05-05T06:35:18.432Z,95010.00
2023-05-05T06:36:18.463Z,95006.00
2023-05-05T06:37:18.445Z,95010.00
2023-05-05T06:38:18.829Z,95008.00
2023-05-05T06:39:18.526Z,95008.00
2023-05-05T06:40:18.544Z,95012.00
2023-05-05T06:41:18.593Z,95010.00
2023-05-05T06:42:18.644Z,95012.00
2023-05-05T06:43:18.685Z,95012.00
2023-05-05T06:44:18.900Z,95010.00
2023-05-05T06:45:18.739Z,95006.00
2023-05-05T06:46:18.902Z,95006.00
2023-05-05T06:47:19.765Z,95004.00
2023-05-05T06:48:18.906Z,95004.00
2023-05-05T06:49:18.977Z,95000.00
2023-05-05T06:50:21.769Z,95002.00
2023-05-05T06:51:19.015Z,94996.00
2023-05-05T06:52:19.031Z,94998.00
2023-05-05T06:53:19.150Z,95000.00
2023-05-05T06:54:18.995Z,95000.00
2023-05-05T06:55:18.985Z,95000.00
2023-05-05T06:56:18.956Z,95000.00
2023-05-05T06:57:18.995Z,94998.00
2023-05-05T06:58:18.944Z,95000.00
2023-05-05T06:59:18.962Z,95000.00
2023-05-05T07:00:19.030Z,94996.00
2023-05-05T07:01:19.039Z,94998.00
2023-05-05T07:02:18.959Z,94998.00
2023-05-05T07:03:19.120Z,94998.00
2023-05-05T07:04:19.070Z,94994.00
2023-05-05T07:05:18.944Z,94994.00
2023-05-05T07:06:18.894Z,94992.00
2023-05-05T07:07:18.906Z,94991.00
2023-05-05T07:08:18.977Z,94989.00
2023-05-05T07:09:19.133Z,94991.00
2023-05-05T07:10:18.976Z,94991.00
2023-05-05T07:11:18.948Z,94989.00
2023-05-05T07:12:19.072Z,94989.00
2023-05-05T07:13:18.899Z,94989.00
2023-05-05T07:14:20.575Z,94992.00
2023-05-05T07:15:27.490Z,94987.00
2023-05-05T07:16:20.265Z,94987.00
2023-05-05T07:17:19.107Z,94987.00
2023-05-05T07:18:19.108Z,94989.00
2023-05-05T07:19:19.138Z,94985.00
2023-05-05T07:20:19.042Z,94983.00
2023-05-05T07:21:19.075Z,94985.00
2023-05-05T07:22:19.054Z,94981.00
2023-05-05T07:23:19.007Z,94981.00
2023-05-05T07:24:19.027Z,94979.00
2023-05-05T07:25:19.163Z,94979.00
2023-05-05T07:26:19.132Z,94977.00
2023-05-05T07:27:19.120Z,94975.00
2023-05-05T07:28:19.156Z,94975.00
2023-05-05T07:29:19.272Z,94977.00
2023-05-05T07:30:19.705Z,94973.00
2023-05-05T07:31:19.335Z,94969.00
2023-05-05T07:32:19.437Z,94967.00
2023-05-05T07:33:19.283Z,94969.00
2023-05-05T07:34:19.780Z,94969.00
2023-05-05T07:35:19.334Z,94967.00
2023-05-05T07:36:19.337Z,94965.00
2023-05-05T07:37:19.354Z,94965.00
2023-05-05T07:38:19.437Z,94965.00
2023-05-05T07:39:19.426Z,94965.00
2023-05-05T07:40:19.483Z,94965.00
2023-05-05T07:41:19.601Z,94963.00
2023-05-05T07:42:19.926Z,94959.00
2023-05-05T07:43:19.754Z,94955.00
2023-05-05T07:44:19.761Z,94953.00
2023-05-05T07:45:19.826Z,94953.00
2023-05-05T07:46:19.867Z,94947.00
2023-05-05T07:47:20.081Z,94945.00
2023-05-05T07:48:19.896Z,94945.00
2023-05-05T07:49:19.924Z,94949.00
2023-05-05T07:50:20.065Z,94947.00
2023-05-05T07:51:20.139Z,94949.00
2023-05-05T07:52:25.231Z,94947.00
2023-05-05T07:53:20.984Z,94944.00
2023-05-05T07:54:20.036Z,94942.00
2023-05-05T07:55:20.008Z,94944.00
2023-05-05T07:56:21.651Z,94942.00
2023-05-05T07:57:20.199Z,94942.00
2023-05-05T07:58:19.968Z,94940.00
2023-05-05T07:59:19.965Z,94938.00
2023-05-05T08:00:19.945Z,94940.00
2023-05-05T08:01:19.955Z,94934.00
2023-05-05T08:02:19.943Z,94936.00
2023-05-05T08:03:20.118Z,94936.00
2023-05-05T08:04:19.998Z,94938.00
2023-05-05T08:05:19.953Z,94936.00
2023-05-05T08:06:19.888Z,94938.00
2023-05-05T08:07:19.902Z,94938.00
2023-05-05T08:08:19.886Z,94936.00
2023-05-05T08:09:19.904Z,94936.00
2023-05-05T08:10:19.864Z,94934.00
2023-05-05T08:11:19.853Z,94934.00
2023-05-05T08:12:19.881Z,94934.00
2023-05-05T08:13:20.009Z,94936.00
2023-05-05T08:14:19.866Z,94934.00
2023-05-05T08:15:19.900Z,94932.00
2023-05-05T08:16:19.873Z,94928.00
2023-05-05T08:17:19.830Z,94928.00
2023-05-05T08:18:19.826Z,94926.00
2023-05-05T08:19:28.946Z,94928.00
2023-05-05T08:20:20.862Z,94926.00
2023-05-05T08:21:19.839Z,94922.00
2023-05-05T08:22:19.787Z,94922.00
2023-05-05T08:23:19.855Z,94920.00
2023-05-05T08:24:19.776Z,94920.00
2023-05-05T08:25:19.798Z,94914.00
2023-05-05T08:26:19.767Z,94914.00
2023-05-05T08:27:19.753Z,94906.00
2023-05-05T08:28:19.749Z,94904.00
2023-05-05T08:29:20.085Z,94904.00
2023-05-05T08:30:19.837Z,94900.00
2023-05-05T08:31:19.859Z,94900.00
2023-05-05T08:32:19.843Z,94900.00
2023-05-05T08:33:19.954Z,94898.00
2023-05-05T08:34:19.824Z,94898.00
2023-05-05T08:35:19.827Z,94898.00
2023-05-05T08:36:19.844Z,94894.00
2023-05-05T08:37:19.821Z,94892.00
2023-05-05T08:38:19.834Z,94892.00
2023-05-05T08:39:19.835Z,94889.00
2023-05-05T08:40:19.854Z,94889.00
2023-05-05T08:41:19.863Z,94889.00
2023-05-05T08:42:32.829Z,94887.00
2023-05-05T08:43:20.879Z,94883.00
2023-05-05T08:44:20.292Z,94881.00
2023-05-05T08:45:20.005Z,94879.00
2023-05-05T08:46:19.932Z,94879.00
2023-05-05T08:47:19.847Z,94877.00
2023-05-05T08:48:19.827Z,94873.00
2023-05-05T08:49:19.826Z,94875.00
2023-05-05T08:50:19.826Z,94875.00
2023-05-05T08:51:19.825Z,94871.00
2023-05-05T08:52:19.824Z,94871.00
2023-05-05T08:53:19.812Z,94869.00
2023-05-05T08:54:19.797Z,94869.00
2023-05-05T08:55:19.779Z,94869.00
2023-05-05T08:56:19.781Z,94867.00
2023-05-05T08:57:19.780Z,94869.00
2023-05-05T08:58:19.779Z,94867.00
2023-05-05T08:59:19.809Z,94869.00
2023-05-05T09:00:19.764Z,94865.00
2023-05-05T09:01:19.885Z,94865.00
2023-05-05T09:02:19.795Z,94865.00
2023-05-05T09:03:19.731Z,94867.00
2023-05-05T09:04:19.749Z,94865.00
2023-05-05T09:05:19.909Z,94863.00
2023-05-05T09:06:19.891Z,94861.00
2023-05-05T09:07:20.041Z,94863.00
2023-05-05T09:08:19.940Z,94859.00
2023-05-05T09:09:20.042Z,94863.00
2023-05-05T09:10:20.068Z,94859.00
2023-05-05T09:11:20.171Z,94857.00
2023-05-05T09:12:20.239Z,94857.00
2023-05-05T09:13:20.422Z,94853.00
2023-05-05T09:14:20.327Z,94853.00
2023-05-05T09:15:20.404Z,94853.00
2023-05-05T09:16:20.603Z,94850.00
2023-05-05T09:17:20.612Z,94850.00
2023-05-05T09:18:20.576Z,94844.00
2023-05-05T09:19:20.642Z,94846.00
2023-05-05T09:20:20.708Z,94842.00
2023-05-05T09:21:20.758Z,94838.00
2023-05-05T09:22:20.833Z,94840.00
2023-05-05T09:23:20.916Z,94840.00
2023-05-05T09:24:22.306Z,94838.00
2023-05-05T09:25:20.996Z,94838.00
2023-05-05T09:26:21.077Z,94834.00
2023-05-05T09:27:21.134Z,94834.00
2023-05-05T09:28:21.164Z,94832.00
2023-05-05T09:29:21.302Z,94828.00
2023-05-05T09:30:21.278Z,94830.00
2023-05-05T09:31:21.371Z,94826.00
2023-05-05T09:32:21.362Z,94828.00
2023-05-05T09:33:21.450Z,94828.00
2023-05-05T09:34:21.831Z,94828.00
2023-05-05T09:35:21.489Z,94822.00
2023-05-05T09:36:21.493Z,94826.00
2023-05-05T09:37:21.557Z,94818.00
2023-05-05T09:38:21.705Z,94816.00
2023-05-05T09:39:21.689Z,94814.00
2023-05-05T09:40:21.840Z,94814.00
2023-05-05T09:41:21.804Z,94808.00
2023-05-05T09:42:21.866Z,94808.00
2023-05-05T09:43:22.821Z,94808.00
2023-05-05T09:44:22.362Z,94806.00
2023-05-05T09:45:22.089Z,94806.00
2023-05-05T09:46:22.131Z,94805.00
2023-05-05T09:47:29.460Z,94803.00
2023-05-05T09:48:23.195Z,94803.00
2023-05-05T09:49:22.391Z,94801.00
2023-05-05T09:50:22.125Z,94799.00
2023-05-05T09:51:22.149Z,94795.00
2023-05-05T09:52:22.110Z,94797.00
2023-05-05T09:53:22.157Z,94795.00
2023-05-05T09:54:22.105Z,94791.00
2023-05-05T09:55:22.118Z,94793.00
2023-05-05T09:56:22.115Z,94791.00
2023-05-05T09:57:22.081Z,94791.00
2023-05-05T09:58:22.158Z,94787.00
2023-05-05T09:59:22.071Z,94785.00
2023-05-05T10:00:22.059Z,94785.00
2023-05-05T10:01:22.143Z,94781.00
2023-05-05T10:02:22.043Z,94785.00
2023-05-05T10:03:22.047Z,94783.00
2023-05-05T10:04:22.094Z,94781.00
2023-05-05T10:05:22.228Z,94781.00
2023-05-05T10:06:22.015Z,94777.00
2023-05-05T10:07:22.035Z,94771.00
2023-05-05T10:08:21.998Z,94775.00
2023-05-05T10:09:21.979Z,94773.00
2023-05-05T10:10:22.026Z,94773.00
2023-05-05T10:11:22.008Z,94771.00
2023-05-05T10:12:21.962Z,94769.00
2023-05-05T10:13:21.944Z,94769.00
2023-05-05T10:14:21.955Z,94771.00
2023-05-05T10:15:22.863Z,94767.00
2023-05-05T10:16:22.077Z,94767.00
2023-05-05T10:17:21.957Z,94761.00
2023-05-05T10:18:22.099Z,94761.00
2023-05-05T10:19:21.936Z,94761.00
2023-05-05T10:20:22.824Z,94757.00
2023-05-05T10:21:22.027Z,94757.00
2023-05-05T10:22:21.922Z,94755.00
2023-05-05T10:23:21.944Z,94755.00
2023-05-05T10:24:22.023Z,94753.00
2023-05-05T10:25:21.930Z,94753.00
2023-05-05T10:26:21.958Z,94751.00
2023-05-05T10:27:22.054Z,94751.00
2023-05-05T10:28:22.389Z,94750.00
2023-05-05T10:29:22.020Z,94750.00
2023-05-05T10:30:21.976Z,94748.00
2023-05-05T10:31:26.284Z,94744.00
2023-05-05T10:32:51.102Z,94746.00
2023-05-05T10:34:21.992Z,94738.00
2023-05-05T10:35:21.939Z,94734.00
2023-05-05T10:36:21.953Z,94736.00
2023-05-05T10:37:22.017Z,94738.00
2023-05-05T10:38:22.717Z,94734.00
2023-05-05T10:39:21.915Z,94732.00
2023-05-05T10:40:21.905Z,94728.00
2023-05-05T10:41:21.907Z,94724.00
2023-05-05T10:42:21.932Z,94720.00
2023-05-05T10:43:22.378Z,94724.00
2023-05-05T10:44:22.386Z,94716.00
2023-05-05T10:45:22.001Z,94720.00
2023-05-05T10:46:22.091Z,94718.00
2023-05-05T10:47:22.864Z,94716.00
2023-05-05T10:48:22.179Z,94714.00
2023-05-05T10:49:22.400Z,94716.00
2023-05-05T10:50:22.836Z,94716.00
2023-05-05T10:51:35.177Z,94711.00
2023-05-05T10:52:23.226Z,94711.00
2023-05-05T10:53:22.356Z,94709.00
2023-05-05T10:54:22.268Z,94705.00
2023-05-05T10:55:22.211Z,94707.00
2023-05-05T10:56:22.203Z,94705.00
2023-05-05T10:57:22.246Z,94701.00
2023-05-05T10:58:22.251Z,94697.00
2023-05-05T10:59:22.173Z,94699.00
2023-05-05T11:00:22.174Z,94699.00
2023-05-05T11:01:22.225Z,94697.00
2023-05-05T11:02:22.164Z,94695.00
2023-05-05T11:03:22.427Z,94691.00
2023-05-05T11:04:22.153Z,94687.00
2023-05-05T11:05:22.207Z,94687.00
2023-05-05T11:06:22.190Z,94685.00
2023-05-05T11:07:22.224Z,94679.00
2023-05-05T11:08:22.274Z,94679.00
2023-05-05T11:09:22.934Z,94677.00
2023-05-05T11:10:22.342Z,94673.00
2023-05-05T11:11:22.361Z,94667.00
2023-05-05T11:12:22.414Z,94667.00
2023-05-05T11:13:22.575Z,94664.00
2023-05-05T11:14:22.490Z,94664.00
2023-05-05T11:15:22.509Z,94660.00
2023-05-05T11:16:22.625Z,94660.00
2023-05-05T11:17:22.493Z,94650.00
2023-05-05T11:18:22.542Z,94650.00
2023-05-05T11:19:22.519Z,94650.00
2023-05-05T11:20:22.567Z,94646.00
2023-05-05T11:21:22.565Z,94644.00
2023-05-05T11:22:22.565Z,94638.00
2023-05-05T11:23:22.907Z,94638.00
2023-05-05T11:24:22.608Z,94634.00
2023-05-05T11:25:22.683Z,94634.00
2023-05-05T11:26:22.666Z,94634.00
2023-05-05T11:27:22.671Z,94632.00
2023-05-05T11:28:22.723Z,94628.00
2023-05-05T11:29:22.770Z,94628.00
2023-05-05T11:30:22.820Z,94624.00
2023-05-05T11:31:22.869Z,94624.00
2023-05-05T11:32:23.130Z,94624.00
2023-05-05T11:33:22.973Z,94624.00
2023-05-05T11:34:22.993Z,94620.00
2023-05-05T11:35:23.080Z,94620.00
2023-05-05T11:36:23.097Z,94620.00
2023-05-05T11:37:23.122Z,94616.00
2023-05-05T11:38:23.192Z,94616.00
2023-05-05T11:39:23.375Z,94614.00
2023-05-05T11:40:23.289Z,94611.00
2023-05-05T11:41:23.402Z,94609.00
2023-05-05T11:42:23.366Z,94609.00
2023-05-05T11:43:23.484Z,94607.00
2023-05-05T11:44:23.485Z,94603.00
2023-05-05T11:45:23.657Z,94599.00